Time;durP1;ratioP1;P1;durP2;ratioP2;P2;SDS_P1;SDS_P2;PMS_P1;PMS_P2;Temp;Humidity;BMP_temperature;BMP_pressure;BME280_temperature;BME280_humidity;BME280_pressure;Samples;Min_cycle;Max_cycle;Signal;HPM_P1;HPM_P2
2022/08/18 00:01:47;;;;;;;5.20;4.50;;;;;;;20.33;94.97;100232.53;5069228;28;20727;-71
2022/08/18 00:04:15;;;;;;;6.97;5.17;;;;;;;20.30;96.07;100230.09;5072525;28;20268;-72
2022/08/18 00:06:42;;;;;;;6.63;5.20;;;;;;;20.24;96.13;100231.41;5068260;28;20198;-72
2022/08/18 00:09:10;;;;;;;5.40;4.90;;;;;;;20.21;96.64;100221.91;5070443;28;20211;-68
2022/08/18 00:11:40;;;;;;;5.67;4.90;;;;;;;20.17;95.41;100224.88;5070932;28;20722;-71
2022/08/18 00:14:07;;;;;;;6.10;4.57;;;;;;;20.15;97.00;100214.41;5069308;28;20213;-71
2022/08/18 00:16:33;;;;;;;6.60;4.93;;;;;;;20.09;99.64;100216.63;5068135;28;20228;-71
2022/08/18 00:19:00;;;;;;;6.10;4.97;;;;;;;20.15;99.76;100209.09;5060460;28;20190;-71
2022/08/18 00:21:28;;;;;;;7.90;5.27;;;;;;;20.08;99.14;100221.09;5066280;28;20265;-71
2022/08/18 00:23:54;;;;;;;5.63;4.93;;;;;;;20.07;99.41;100213.25;5065254;28;20199;-69
2022/08/18 00:26:21;;;;;;;5.77;5.03;;;;;;;19.99;99.45;100212.00;5068512;28;20203;-71
2022/08/18 00:28:47;;;;;;;6.50;5.20;;;;;;;19.96;100.00;100214.03;5067879;28;20209;-70
2022/08/18 00:31:14;;;;;;;5.93;5.33;;;;;;;19.91;100.00;100217.03;5068686;28;20245;-72
2022/08/18 00:33:42;;;;;;;6.40;5.40;;;;;;;19.89;100.00;100218.09;5052334;28;20549;-71
2022/08/18 00:36:09;;;;;;;7.53;5.43;;;;;;;19.86;100.00;100208.56;5059345;28;20199;-71
2022/08/18 00:38:37;;;;;;;6.73;5.60;;;;;;;19.78;100.00;100213.56;5064406;28;20198;-71
2022/08/18 00:41:05;;;;;;;5.83;5.20;;;;;;;19.77;100.00;100206.56;5068698;28;20702;-69
2022/08/18 00:43:36;;;;;;;6.90;5.07;;;;;;;19.75;100.00;100213.78;5060950;28;20223;-69
2022/08/18 00:46:06;;;;;;;8.70;5.83;;;;;;;19.72;100.00;100209.53;5062228;28;20209;-70
2022/08/18 00:48:33;;;;;;;7.63;5.67;;;;;;;19.69;100.00;100207.09;5062493;28;20190;-69
2022/08/18 00:51:04;;;;;;;6.63;5.40;;;;;;;19.72;100.00;100206.88;5061716;28;20268;-69
2022/08/18 00:53:35;;;;;;;7.37;5.67;;;;;;;19.66;100.00;100207.31;5068001;28;20214;-70
2022/08/18 00:56:08;;;;;;;6.43;5.13;;;;;;;19.71;100.00;100204.34;5063370;28;20209;-70
2022/08/18 00:58:38;;;;;;;6.83;5.37;;;;;;;19.66;100.00;100204.66;5064337;28;20214;-70
2022/08/18 01:01:08;;;;;;;6.23;5.63;;;;;;;19.60;100.00;100207.75;5068862;28;20293;-71
2022/08/18 01:03:38;;;;;;;7.13;5.60;;;;;;;19.59;100.00;100208.69;5068372;28;20281;-70
2022/08/18 01:06:09;;;;;;;7.30;5.20;;;;;;;19.58;100.00;100204.38;5067131;28;20281;-71
2022/08/18 01:08:37;;;;;;;6.20;5.43;;;;;;;19.58;100.00;100207.84;5068130;28;20195;-70
2022/08/18 01:11:05;;;;;;;5.57;4.53;;;;;;;19.60;100.00;100211.22;5067101;28;20226;-70
2022/08/18 01:13:33;;;;;;;6.47;5.57;;;;;;;19.59;100.00;100200.75;5068159;28;20221;-71
2022/08/18 01:21:49;;;;;;;8.50;5.60;;;;;;;19.59;100.00;100200.75;5062764;28;20210;-71
2022/08/18 01:21:52;;;;;;;7.93;5.73;;;;;;;19.51;100.00;100196.03;5065099;28;20710;-71
2022/08/18 01:25:58;;;;;;;6.07;4.97;;;;;;;19.51;100.00;100200.44;5068285;28;20195;-71
2022/08/18 01:27:11;;;;;;;6.30;5.33;;;;;;;19.50;100.00;100204.91;5067302;28;20202;-71
2022/08/18 01:29:38;;;;;;;7.60;5.90;;;;;;;19.48;100.00;100209.44;5068345;28;20210;-69
2022/08/18 01:32:05;;;;;;;6.33;5.07;;;;;;;19.49;100.00;100205.88;5068525;28;20627;-71
2022/08/18 01:34:32;;;;;;;6.53;5.60;;;;;;;19.46;100.00;100204.25;5067811;28;20202;-71
2022/08/18 01:36:58;;;;;;;8.60;6.30;;;;;;;19.38;100.00;100208.41;5067896;28;20852;-71
2022/08/18 01:39:26;;;;;;;7.57;5.93;;;;;;;19.42;100.00;100212.53;5067899;28;20199;-70
2022/08/18 01:41:52;;;;;;;6.60;5.77;;;;;;;19.39;100.00;100205.66;5067667;28;20207;-71
2022/08/18 01:44:19;;;;;;;7.13;6.13;;;;;;;19.38;100.00;100201.31;5063711;28;20207;-71
2022/08/18 01:46:45;;;;;;;6.73;5.13;;;;;;;19.35;100.00;100195.38;5061641;28;20647;-71
2022/08/18 01:49:12;;;;;;;8.57;5.67;;;;;;;19.35;100.00;100198.03;5064117;28;20209;-71
2022/08/18 01:51:40;;;;;;;6.80;5.73;;;;;;;19.38;100.00;100203.94;5071907;28;20230;-69
2022/08/18 01:54:07;;;;;;;9.10;5.90;;;;;;;19.33;100.00;100199.94;5071942;28;20210;-71
2022/08/18 01:56:35;;;;;;;8.53;5.43;;;;;;;19.29;100.00;100201.94;5057661;28;20219;-70
2022/08/18 01:59:02;;;;;;;6.80;5.67;;;;;;;19.24;100.00;100204.06;5062220;28;20203;-69
2022/08/18 02:01:29;;;;;;;7.90;5.80;;;;;;;19.21;100.00;100209.59;5064970;28;20226;-70
2022/08/18 02:03:59;;;;;;;8.40;5.80;;;;;;;19.21;100.00;100205.13;5069606;28;20324;-71
2022/08/18 02:06:26;;;;;;;7.17;5.57;;;;;;;19.16;100.00;100201.13;5072533;28;20689;-71
2022/08/18 02:08:52;;;;;;;7.07;5.73;;;;;;;19.15;100.00;100213.47;5068086;28;20203;-70
2022/08/18 02:11:19;;;;;;;7.77;5.57;;;;;;;19.15;100.00;100205.53;5070967;28;20214;-71
2022/08/18 02:13:46;;;;;;;6.93;5.43;;;;;;;19.09;100.00;100205.97;5071316;28;20210;-71
2022/08/18 02:16:13;;;;;;;8.17;5.90;;;;;;;19.05;100.00;100202.69;5073798;28;20199;-71
2022/08/18 02:18:39;;;;;;;7.73;5.67;;;;;;;19.09;100.00;100201.53;5071446;28;20214;-71
2022/08/18 02:21:09;;;;;;;8.00;5.87;;;;;;;19.08;100.00;100204.28;5067109;28;20232;-71
2022/08/18 02:23:35;;;;;;;8.43;6.40;;;;;;;19.06;100.00;100196.44;5069992;28;20214;-71
2022/08/18 02:26:05;;;;;;;6.80;5.63;;;;;;;19.04;100.00;100197.50;5073768;28;20204;-71
2022/08/18 02:28:32;;;;;;;7.87;5.93;;;;;;;18.96;100.00;100198.06;5076953;28;20202;-68
2022/08/18 02:31:05;;;;;;;8.67;6.00;;;;;;;18.94;100.00;100196.44;5078080;28;20218;-69
2022/08/18 02:33:32;;;;;;;6.77;5.07;;;;;;;18.91;100.00;100194.88;5078412;28;20217;-71
2022/08/18 02:35:59;;;;;;;9.23;6.07;;;;;;;18.99;100.00;100194.34;5072416;28;20241;-71
2022/08/18 02:38:25;;;;;;;10.53;6.03;;;;;;;18.96;100.00;100199.81;5078951;28;20206;-71
2022/08/18 02:40:55;;;;;;;7.40;5.70;;;;;;;18.89;100.00;100197.63;5078604;28;20233;-71
2022/08/18 02:43:21;;;;;;;8.33;6.70;;;;;;;18.84;100.00;100193.59;5074618;28;20198;-71
2022/08/18 02:45:48;;;;;;;7.63;6.33;;;;;;;18.84;100.00;100189.16;5070869;28;20213;-71
2022/08/18 02:48:17;;;;;;;8.03;5.57;;;;;;;18.83;100.00;100191.91;5070246;28;20191;-71
2022/08/18 02:50:46;;;;;;;8.70;6.17;;;;;;;18.82;100.00;100185.78;5071614;28;20228;-71
2022/08/18 02:53:17;;;;;;;8.37;6.37;;;;;;;18.84;100.00;100188.31;5065634;28;20225;-71
2022/08/18 02:55:43;;;;;;;7.93;6.23;;;;;;;18.81;100.00;100191.13;5070891;28;20275;-68
2022/08/18 02:58:12;;;;;;;7.63;6.00;;;;;;;18.80;100.00;100195.53;5070023;28;20311;-70
2022/08/18 03:00:38;;;;;;;9.57;6.30;;;;;;;18.78;100.00;100194.81;5066382;28;20739;-71
2022/08/18 03:03:05;;;;;;;8.00;5.80;;;;;;;18.78;100.00;100186.03;5065287;28;20199;-70
2022/08/18 03:05:33;;;;;;;7.70;5.73;;;;;;;18.70;100.00;100197.97;5070292;28;20214;-71
2022/08/18 03:07:59;;;;;;;8.17;6.37;;;;;;;18.74;100.00;100201.25;5066241;28;20194;-70
2022/08/18 03:10:26;;;;;;;7.17;5.80;;;;;;;18.73;100.00;100205.69;5068472;28;20280;-71
2022/08/18 03:12:52;;;;;;;8.57;6.27;;;;;;;18.67;100.00;100203.44;5068875;28;20198;-72
2022/08/18 03:15:18;;;;;;;8.40;6.10;;;;;;;18.73;100.00;100205.69;5062473;28;20278;-70
2022/08/18 03:17:45;;;;;;;8.17;5.80;;;;;;;18.65;100.00;100197.44;5064818;28;20218;-71
2022/08/18 03:20:11;;;;;;;7.53;5.30;;;;;;;18.67;100.00;100202.59;5060600;28;20191;-69
2022/08/18 03:22:39;;;;;;;6.10;5.30;;;;;;;18.67;100.00;100200.81;5067857;28;20221;-70
2022/08/18 03:25:05;;;;;;;10.80;6.57;;;;;;;18.62;100.00;100202.91;5070240;28;20183;-71
2022/08/18 03:27:32;;;;;;;9.33;5.87;;;;;;;18.55;100.00;100204.25;5069943;28;20213;-70
2022/08/18 03:29:59;;;;;;;7.90;5.83;;;;;;;18.52;100.00;100194.78;5069557;28;20198;-71
2022/08/18 03:32:26;;;;;;;8.00;6.17;;;;;;;18.49;100.00;100196.75;5073070;28;20249;-71
2022/08/18 03:34:52;;;;;;;7.17;5.70;;;;;;;18.43;100.00;100195.34;5067242;28;20718;-72
2022/08/18 03:37:18;;;;;;;9.73;6.13;;;;;;;18.41;100.00;100197.25;5069735;28;20663;-72
2022/08/18 03:39:46;;;;;;;7.90;5.80;;;;;;;18.43;100.00;100189.22;5070396;28;20195;-71
2022/08/18 03:42:12;;;;;;;10.60;6.27;;;;;;;18.42;100.00;100195.47;5070317;28;20227;-71
2022/08/18 03:44:39;;;;;;;6.60;5.60;;;;;;;18.41;100.00;100194.59;5070241;28;20223;-71
2022/08/18 03:47:10;;;;;;;8.40;6.40;;;;;;;18.44;100.00;100193.56;5070257;28;20201;-72
2022/08/18 03:49:37;;;;;;;7.80;5.60;;;;;;;18.39;100.00;100185.94;5068121;28;20210;-70
2022/08/18 03:52:08;;;;;;;9.60;6.50;;;;;;;18.39;100.00;100190.41;5070295;28;20226;-71
2022/08/18 03:54:35;;;;;;;8.07;6.70;;;;;;;18.38;100.00;100191.31;5069721;28;20206;-71
2022/08/18 03:57:03;;;;;;;8.40;6.23;;;;;;;18.34;100.00;100190.69;5070109;28;20285;-71
2022/08/18 03:59:32;;;;;;;7.80;6.47;;;;;;;18.36;100.00;100199.34;5069724;28;20214;-71
2022/08/18 04:01:58;;;;;;;8.53;6.23;;;;;;;18.39;100.00;100191.22;5067807;28;20876;-70
2022/08/18 04:04:27;;;;;;;8.87;6.07;;;;;;;18.35;100.00;100190.59;5069819;28;20203;-71
2022/08/18 04:06:57;;;;;;;7.90;6.63;;;;;;;18.34;100.00;100195.97;5069101;28;20204;-71
2022/08/18 04:09:26;;;;;;;8.90;6.63;;;;;;;18.31;100.00;100198.78;5069384;28;20199;-71
2022/08/18 04:11:53;;;;;;;11.60;6.67;;;;;;;18.30;100.00;100197.97;5069354;28;20222;-71
2022/08/18 04:14:23;;;;;;;13.13;6.53;;;;;;;18.38;100.00;100201.88;5069843;28;20669;-69
2022/08/18 04:16:50;;;;;;;10.07;6.83;;;;;;;18.38;100.00;100194.84;5065093;28;20211;-71
2022/08/18 04:19:17;;;;;;;8.47;5.90;;;;;;;18.36;100.00;100204.63;5063765;28;20230;-71
2022/08/18 04:21:44;;;;;;;6.77;5.67;;;;;;;18.36;100.00;100199.34;5064006;28;20222;-71
2022/08/18 04:24:13;;;;;;;9.83;7.40;;;;;;;18.43;100.00;100195.34;5065839;28;20190;-71
2022/08/18 04:26:42;;;;;;;9.43;7.23;;;;;;;18.48;100.00;100198.53;5068093;28;20194;-71
2022/08/18 04:29:11;;;;;;;7.03;6.10;;;;;;;18.55;100.00;100202.47;5072352;28;20230;-70
2022/08/18 04:31:39;;;;;;;8.23;5.80;;;;;;;18.57;100.00;100205.00;5074241;28;20219;-72
2022/08/18 04:34:05;;;;;;;8.97;6.90;;;;;;;18.60;100.00;100211.88;5068674;28;20201;-72
2022/08/18 04:36:34;;;;;;;7.03;6.20;;;;;;;18.65;100.00;100209.78;5069065;28;20564;-72
2022/08/18 04:39:02;;;;;;;7.90;6.87;;;;;;;18.78;100.00;100210.66;5069055;28;20264;-72
2022/08/18 04:41:28;;;;;;;8.73;6.83;;;;;;;18.77;100.00;100216.03;5068536;28;20218;-72
2022/08/18 04:43:57;;;;;;;9.90;6.80;;;;;;;18.81;100.00;100217.53;5069558;28;20198;-73
2022/08/18 04:46:23;;;;;;;8.43;6.37;;;;;;;18.97;100.00;100222.66;5068711;28;20274;-72
2022/08/18 04:48:51;;;;;;;9.07;7.37;;;;;;;19.14;100.00;100227.66;5066156;28;20210;-71
2022/08/18 04:51:20;;;;;;;9.93;7.30;;;;;;;19.19;100.00;100228.19;5064206;28;20229;-72
2022/08/18 04:53:46;;;;;;;8.57;6.80;;;;;;;19.43;100.00;100220.34;5068126;28;20495;-71
2022/08/18 04:56:24;;;;;;;9.07;6.73;;;;;;;19.52;100.00;100221.50;5061920;28;20198;-71
2022/08/18 04:58:51;;;;;;;8.30;6.60;;;;;;;19.56;100.00;100219.47;5061707;28;20221;-72
2022/08/18 05:01:20;;;;;;;9.30;7.17;;;;;;;19.60;100.00;100229.75;5073485;28;20218;-72
2022/08/18 05:03:47;;;;;;;7.97;7.03;;;;;;;19.66;100.00;100236.38;5062811;28;20202;-71
2022/08/18 05:06:15;;;;;;;9.73;6.87;;;;;;;19.69;100.00;100236.19;5067796;28;20204;-72
2022/08/18 05:08:41;;;;;;;9.97;6.87;;;;;;;19.81;100.00;100237.16;5065927;28;20213;-72
2022/08/18 05:11:08;;;;;;;10.97;7.17;;;;;;;19.91;100.00;100235.56;5065507;28;20211;-72
2022/08/18 05:13:34;;;;;;;9.17;6.53;;;;;;;19.99;100.00;100238.47;5068140;28;20198;-72
2022/08/18 05:16:02;;;;;;;9.50;6.27;;;;;;;20.08;100.00;100234.31;5068002;28;20848;-72
2022/08/18 05:18:30;;;;;;;11.40;7.90;;;;;;;20.18;100.00;100240.66;5080971;28;20581;-72
2022/08/18 05:20:57;;;;;;;8.90;7.20;;;;;;;20.18;100.00;100250.41;5067252;28;20724;-72
2022/08/18 05:23:24;;;;;;;8.33;6.70;;;;;;;20.21;100.00;100253.66;5070748;28;20194;-72
2022/08/18 05:25:57;;;;;;;9.77;7.30;;;;;;;20.26;100.00;100253.31;5072811;28;20570;-72
2022/08/18 05:28:23;;;;;;;9.37;7.33;;;;;;;20.33;100.00;100246.59;5071720;28;20232;-72
2022/08/18 05:30:50;;;;;;;10.13;7.73;;;;;;;20.45;100.00;100246.69;5068929;28;20237;-70
2022/08/18 05:33:16;;;;;;;10.87;7.77;;;;;;;20.47;100.00;100240.31;5066721;28;20203;-72
2022/08/18 05:35:47;;;;;;;11.13;7.63;;;;;;;20.48;100.00;100243.81;5067650;28;20202;-72
2022/08/18 05:38:29;;;;;;;8.10;7.00;;;;;;;20.56;100.00;100246.72;5067568;28;20214;-72
2022/08/18 05:41:07;;;;;;;9.87;7.57;;;;;;;20.65;100.00;100245.22;5066112;28;20206;-72
2022/08/18 05:43:35;;;;;;;9.60;7.13;;;;;;;20.75;99.51;100249.72;5072246;28;20202;-71
2022/08/18 05:46:05;;;;;;;9.57;7.20;;;;;;;20.87;98.13;100247.97;5071460;28;20293;-72
2022/08/18 05:48:32;;;;;;;9.17;7.20;;;;;;;21.02;98.27;100253.94;5066411;28;20191;-72
2022/08/18 05:51:03;;;;;;;8.63;6.93;;;;;;;21.11;96.20;100258.53;5067969;28;20680;-72
2022/08/18 05:58:59;;;;;;;9.83;6.97;;;;;;;21.43;93.93;100249.91;5065560;28;20214;-73
2022/08/18 06:01:29;;;;;;;7.57;6.57;;;;;;;21.53;94.55;100255.38;5065127;28;20226;-71
2022/08/18 06:04:02;;;;;;;8.40;6.73;;;;;;;21.62;93.73;100252.00;5064502;28;21139;-72
2022/08/18 06:06:31;;;;;;;8.13;6.67;;;;;;;21.70;91.80;100260.19;5063122;28;20213;-73
2022/08/18 06:09:10;;;;;;;9.87;6.57;;;;;;;21.79;88.91;100252.47;5064547;28;20202;-71
2022/08/18 06:11:36;;;;;;;8.07;6.80;;;;;;;21.91;86.65;100254.97;5063331;28;20229;-70
2022/08/18 06:14:02;;;;;;;8.93;6.90;;;;;;;22.08;86.05;100253.63;5063008;28;20211;-71
2022/08/18 06:16:42;;;;;;;10.03;6.37;;;;;;;22.23;84.62;100253.38;5062596;28;20203;-72
2022/08/18 06:19:24;;;;;;;7.87;6.80;;;;;;;22.34;85.21;100247.22;5062502;28;20227;-72
2022/08/18 06:22:01;;;;;;;7.43;6.57;;;;;;;22.42;83.73;100250.94;5062874;28;20222;-72
2022/08/18 06:24:37;;;;;;;9.37;6.90;;;;;;;22.54;84.37;100259.72;5063568;28;20202;-71
2022/08/18 06:27:13;;;;;;;9.10;6.47;;;;;;;22.64;84.99;100258.00;5062530;28;20228;-72
2022/08/18 06:29:54;;;;;;;8.17;6.43;;;;;;;22.75;82.44;100267.72;5063818;28;20195;-72
2022/08/18 06:32:33;;;;;;;8.05;6.30;;;;;;;22.89;82.29;100266.56;5062215;28;20241;-71
2022/08/18 06:35:10;;;;;;;8.15;6.35;;;;;;;23.00;82.78;100268.34;5060988;28;20202;-73
2022/08/18 06:40:27;;;;;;;8.02;5.90;;;;;;;23.15;82.25;100261.75;5061896;28;20751;-72
2022/08/18 06:42:53;;;;;;;8.45;6.35;;;;;;;23.25;82.15;100273.31;5055086;28;20237;-71
2022/08/18 06:45:25;;;;;;;8.48;6.68;;;;;;;23.36;82.13;100277.69;5067019;28;20198;-70
2022/08/18 06:47:58;;;;;;;7.57;6.13;;;;;;;23.46;80.75;100272.41;5080586;28;20214;-71
2022/08/18 06:50:30;;;;;;;7.97;6.03;;;;;;;23.61;78.86;100280.91;5090833;28;20237;-74
2022/08/18 06:52:58;;;;;;;8.85;6.35;;;;;;;23.70;80.66;100274.78;5096006;28;20257;-73
2022/08/18 06:55:35;;;;;;;7.93;6.30;;;;;;;23.82;79.55;100283.56;5099623;28;20195;-71
2022/08/18 06:58:05;;;;;;;9.68;6.28;;;;;;;23.87;78.86;100283.13;5094803;28;20265;-71
2022/08/18 07:00:33;;;;;;;10.18;6.18;;;;;;;23.92;80.52;100273.78;5074958;28;20230;-71
2022/08/18 07:03:06;;;;;;;8.32;6.30;;;;;;;23.98;79.71;100273.25;5072787;28;20207;-71
2022/08/18 07:05:34;;;;;;;7.18;6.30;;;;;;;24.06;80.42;100279.69;5063426;28;20206;-70
2022/08/18 07:08:27;;;;;;;8.90;6.50;;;;;;;24.20;77.22;100276.66;5064507;28;20203;-72
2022/08/18 07:10:55;;;;;;;10.52;6.82;;;;;;;24.37;75.92;100277.81;5063765;28;20215;-70
2022/08/18 07:13:25;;;;;;;8.15;6.38;;;;;;;24.50;77.02;100270.41;5060029;28;20703;-72
2022/08/18 07:15:53;;;;;;;8.13;6.70;;;;;;;24.60;74.10;100281.09;5064475;28;20623;-71
2022/08/18 07:18:26;;;;;;;8.13;6.90;;;;;;;24.77;76.85;100276.91;5066086;28;20277;-70
2022/08/18 07:20:56;;;;;;;6.90;6.05;;;;;;;24.86;74.02;100277.88;5062535;28;20219;-70
2022/08/18 07:23:33;;;;;;;8.85;6.35;;;;;;;24.99;72.87;100282.91;5062709;28;20213;-70
2022/08/18 07:26:09;;;;;;;7.05;5.95;;;;;;;25.18;73.42;100279.41;5066913;28;20213;-71
2022/08/18 07:28:38;;;;;;;6.97;6.18;;;;;;;25.27;71.78;100284.72;5068101;28;20548;-70
2022/08/18 07:31:34;;;;;;;6.97;5.97;;;;;;;25.37;71.91;100287.38;5068612;28;20223;-71
2022/08/18 07:34:04;;;;;;;7.18;6.40;;;;;;;25.52;69.38;100285.09;5065315;28;20202;-70
2022/08/18 07:36:35;;;;;;;7.55;6.38;;;;;;;25.65;69.67;100292.78;5060855;28;20201;-74
2022/08/18 07:39:07;;;;;;;7.50;6.07;;;;;;;25.78;67.99;100295.13;5067990;28;20584;-69
2022/08/18 07:41:42;;;;;;;6.97;6.28;;;;;;;25.93;68.92;100285.66;5065459;28;20218;-68
2022/08/18 07:44:18;;;;;;;7.50;6.40;;;;;;;26.07;66.89;100287.00;5067871;28;20218;-70
2022/08/18 07:46:52;;;;;;;8.27;6.50;;;;;;;26.25;65.46;100287.03;5067345;28;20582;-68
2022/08/18 07:49:21;;;;;;;7.20;6.13;;;;;;;26.33;64.74;100288.94;5065851;28;20205;-68
2022/08/18 07:51:53;;;;;;;12.55;5.90;;;;;;;26.44;64.57;100289.59;5062604;28;20218;-68
2022/08/18 07:54:34;;;;;;;7.10;6.05;;;;;;;26.59;61.36;100297.06;5063440;28;20227;-68
2022/08/18 07:57:09;;;;;;;6.70;6.00;;;;;;;26.68;59.49;100296.19;5067566;28;20213;-69
2022/08/18 07:59:41;;;;;;;7.03;5.57;;;;;;;26.78;59.80;100296.97;5063074;28;20724;-68
2022/08/18 08:02:22;;;;;;;6.28;5.60;;;;;;;26.91;59.05;100299.25;5065936;28;20219;-68
2022/08/18 08:04:56;;;;;;;7.68;6.40;;;;;;;27.13;58.43;100299.75;5063984;28;20190;-71
2022/08/18 08:07:28;;;;;;;8.57;6.28;;;;;;;27.35;57.35;100303.78;5065169;28;20198;-71
2022/08/18 08:10:11;;;;;;;6.53;5.72;;;;;;;27.48;57.38;100300.69;5069873;28;20195;-70
2022/08/18 08:12:45;;;;;;;6.60;5.70;;;;;;;27.56;56.52;100300.72;5067093;28;21434;-70
2022/08/18 08:15:20;;;;;;;7.45;5.68;;;;;;;27.65;56.50;100309.66;5065587;28;20203;-71
2022/08/18 08:17:59;;;;;;;6.30;5.20;;;;;;;27.73;58.80;100307.03;5064098;28;20202;-71
2022/08/18 08:20:32;;;;;;;7.22;5.80;;;;;;;27.80;57.08;100299.19;5065364;28;20225;-71
2022/08/18 08:23:09;;;;;;;7.40;5.68;;;;;;;27.84;56.04;100304.06;5066481;28;20201;-71
2022/08/18 08:25:47;;;;;;;5.85;5.25;;;;;;;27.83;58.99;100298.88;5065154;28;20210;-71
2022/08/18 08:28:27;;;;;;;8.30;5.88;;;;;;;28.01;55.07;100302.34;5065404;28;20209;-72
2022/08/18 08:31:06;;;;;;;6.88;5.15;;;;;;;28.21;53.50;100313.63;5062763;28;20219;-71
2022/08/18 08:33:38;;;;;;;6.63;5.72;;;;;;;28.48;52.76;100312.53;5062390;28;20208;-71
2022/08/18 08:36:10;;;;;;;6.30;5.50;;;;;;;28.54;51.88;100305.69;5064182;28;20203;-72
2022/08/18 08:38:44;;;;;;;6.82;5.20;;;;;;;28.62;51.36;100304.84;5061563;28;20205;-71
2022/08/18 08:41:18;;;;;;;6.63;5.05;;;;;;;28.75;51.30;100304.41;5066721;28;20222;-73
2022/08/18 08:43:53;;;;;;;6.35;4.95;;;;;;;28.80;51.72;100294.84;5063867;28;20205;-73
2022/08/18 08:46:22;;;;;;;8.07;5.28;;;;;;;28.93;49.98;100304.22;5063825;28;20240;-71
2022/08/18 08:48:53;;;;;;;5.97;5.00;;;;;;;29.03;49.37;100297.69;5063510;28;20223;-71
2022/08/18 08:51:36;;;;;;;7.53;5.45;;;;;;;29.19;47.46;100298.72;5065307;28;20222;-70
2022/08/18 08:54:08;;;;;;;6.22;5.00;;;;;;;29.37;46.41;100298.53;5053926;28;20221;-71
2022/08/18 08:56:44;;;;;;;6.00;4.65;;;;;;;29.47;45.82;100299.19;5063251;28;20203;-72
2022/08/18 08:59:15;;;;;;;5.35;4.82;;;;;;;29.63;46.33;100293.75;5059270;28;20522;-70
2022/08/18 09:01:52;;;;;;;5.88;4.85;;;;;;;29.81;46.60;100287.34;5064503;28;20218;-72
2022/08/18 09:04:30;;;;;;;5.00;4.50;;;;;;;29.87;47.82;100278.59;5065884;28;20571;-70
2022/08/18 09:07:12;;;;;;;4.88;4.38;;;;;;;29.97;45.18;100279.25;5066649;28;20210;-71
2022/08/18 09:09:55;;;;;;;5.18;4.50;;;;;;;30.07;47.01;100260.19;5069679;28;20213;-71
2022/08/18 09:12:43;;;;;;;5.30;4.30;;;;;;;30.29;45.69;100261.25;5062482;28;20218;-71
2022/08/18 09:15:26;;;;;;;6.18;4.50;;;;;;;30.49;43.01;100272.41;5067156;28;20256;-70
2022/08/18 09:18:14;;;;;;;5.20;3.95;;;;;;;30.53;41.95;100271.00;5061680;28;20205;-71
2022/08/18 09:20:53;;;;;;;5.03;4.30;;;;;;;30.48;42.26;100259.13;5069776;28;20233;-72
2022/08/18 09:23:21;;;;;;;4.70;4.28;;;;;;;30.58;42.52;100255.19;5060617;28;20667;-70
2022/08/18 09:25:50;;;;;;;4.70;4.30;;;;;;;30.72;43.32;100245.50;5065780;28;20206;-70
2022/08/18 09:28:22;;;;;;;8.55;4.57;;;;;;;30.64;44.24;100239.34;5060328;28;20205;-71
2022/08/18 09:31:09;;;;;;;5.30;4.80;;;;;;;30.80;41.90;100249.97;5065753;28;20639;-70
2022/08/18 09:34:10;;;;;;;4.88;4.40;;;;;;;30.77;41.17;100242.25;5061467;28;20198;-71
2022/08/18 09:36:47;;;;;;;5.28;4.65;;;;;;;30.96;41.67;100232.88;5054196;28;20214;-71
2022/08/18 09:42:13;;;;;;;5.15;4.40;;;;;;;31.05;41.09;100229.09;5061144;28;20222;-71
2022/08/18 09:45:04;;;;;;;5.18;4.63;;;;;;;31.24;43.06;100225.03;5058119;28;20203;-71
2022/08/18 09:48:02;;;;;;;4.88;4.45;;;;;;;31.44;40.71;100225.28;5055950;28;20718;-71
2022/08/18 09:50:53;;;;;;;4.20;3.80;;;;;;;31.56;41.06;100220.31;5061371;28;20584;-72
2022/08/18 09:53:36;;;;;;;5.55;4.07;;;;;;;31.52;39.18;100219.84;5060176;28;20206;-71
2022/08/18 09:56:04;;;;;;;5.05;4.25;;;;;;;31.56;39.42;100208.72;5057595;28;20226;-70
2022/08/18 09:58:53;;;;;;;4.32;3.78;;;;;;;31.71;39.21;100206.81;5063354;28;20205;-71
2022/08/18 10:01:21;;;;;;;6.68;4.07;;;;;;;31.85;39.16;100202.41;5064245;28;20241;-71
2022/08/18 10:04:23;;;;;;;4.30;3.80;;;;;;;31.79;39.82;100193.22;5064682;28;20721;-70
2022/08/18 10:06:51;;;;;;;4.22;3.83;;;;;;;31.98;38.15;100202.56;5057544;28;20566;-70
2022/08/18 10:09:29;;;;;;;6.05;3.75;;;;;;;32.03;38.15;100196.59;5065567;28;20194;-70
2022/08/18 10:12:22;;;;;;;3.97;3.30;;;;;;;32.04;38.42;100198.28;5070565;28;20214;-71
2022/08/18 10:15:08;;;;;;;3.92;3.42;;;;;;;32.02;39.14;100192.25;5066902;28;20718;-72
2022/08/18 10:17:48;;;;;;;4.70;3.40;;;;;;;32.11;37.81;100198.38;5062497;28;20687;-71
2022/08/18 10:20:27;;;;;;;4.57;3.80;;;;;;;32.31;37.70;100201.28;5063791;28;20991;-70
2022/08/18 10:22:56;;;;;;;4.25;3.70;;;;;;;32.51;37.52;100198.78;5061491;28;20962;-73
2022/08/18 10:25:36;;;;;;;5.80;3.80;;;;;;;32.56;37.40;100202.56;5066607;28;20934;-72
2022/08/18 10:28:05;;;;;;;9.63;6.68;;;;;;;32.63;38.45;100192.69;5066592;28;20254;-70
2022/08/18 10:31:04;;;;;;;5.40;4.28;;;;;;;32.76;37.99;100196.50;5071016;28;20232;-68
2022/08/18 10:34:02;;;;;;;3.70;3.40;;;;;;;33.01;35.64;100197.72;4999775;28;20209;-69
2022/08/18 10:36:50;;;;;;;3.47;3.17;;;;;;;33.06;34.21;100188.22;5053467;28;20214;-69
2022/08/18 10:39:21;;;;;;;3.78;3.10;;;;;;;32.90;34.02;100184.78;5066923;28;20202;-68
2022/08/18 10:42:06;;;;;;;3.40;3.10;;;;;;;32.93;34.45;100180.84;5060777;28;20226;-68
2022/08/18 10:44:40;;;;;;;3.50;3.20;;;;;;;32.83;33.60;100178.50;5065178;28;20198;-68
2022/08/18 10:47:07;;;;;;;4.60;3.30;;;;;;;32.71;34.47;100180.06;5068495;28;20195;-70
2022/08/18 10:49:35;;;;;;;3.58;3.28;;;;;;;32.78;35.01;100179.09;5067219;28;20209;-70
2022/08/18 10:52:23;;;;;;;3.55;3.25;;;;;;;32.83;35.07;100183.91;5068602;28;20222;-68
2022/08/18 10:55:14;;;;;;;3.00;2.80;;;;;;;32.89;36.37;100180.41;5065540;28;20210;-70
2022/08/18 10:58:08;;;;;;;3.50;3.20;;;;;;;32.67;38.00;100176.94;5059833;28;21403;-69
2022/08/18 11:00:51;;;;;;;3.50;3.20;;;;;;;32.64;37.86;100167.34;5059846;28;20526;-68
2022/08/18 11:03:30;;;;;;;4.25;3.40;;;;;;;32.82;36.71;100169.56;5064629;28;20195;-68
2022/08/18 11:06:02;;;;;;;3.22;2.83;;;;;;;33.06;36.36;100164.72;5066709;28;20248;-68
2022/08/18 11:08:29;;;;;;;3.97;3.28;;;;;;;33.25;35.73;100162.38;5062380;28;20249;-68
2022/08/18 11:11:07;;;;;;;3.58;3.10;;;;;;;33.23;37.77;100162.59;5065475;28;20222;-68
2022/08/18 11:13:46;;;;;;;3.67;3.38;;;;;;;33.38;37.20;100155.16;5063827;28;20210;-68
2022/08/18 11:16:35;;;;;;;3.40;3.10;;;;;;;33.71;33.46;100165.28;5062209;28;20203;-68
2022/08/18 11:19:07;;;;;;;3.30;2.95;;;;;;;33.74;33.36;100167.59;5061800;28;20194;-68
2022/08/18 11:21:39;;;;;;;3.55;3.25;;;;;;;33.83;32.99;100173.66;5058076;28;20336;-68
2022/08/18 11:24:10;;;;;;;3.30;3.00;;;;;;;33.88;32.49;100164.91;5066966;28;20278;-68
2022/08/18 11:26:39;;;;;;;3.47;3.15;;;;;;;33.76;33.74;100175.50;5067373;28;20251;-69
2022/08/18 11:29:25;;;;;;;3.88;3.10;;;;;;;33.65;32.80;100168.78;5060529;28;20198;-69
2022/08/18 11:31:56;;;;;;;4.07;3.65;;;;;;;33.63;32.77;100168.13;5066095;28;20214;-68
2022/08/18 11:34:30;;;;;;;4.53;3.53;;;;;;;33.56;34.28;100160.03;5065808;28;20616;-69
2022/08/18 11:36:59;;;;;;;3.55;3.25;;;;;;;33.63;33.99;100164.63;5073475;28;20198;-68
2022/08/18 11:39:27;;;;;;;4.18;3.40;;;;;;;33.86;33.39;100157.03;5068860;28;20207;-69
2022/08/18 11:41:56;;;;;;;3.47;3.17;;;;;;;33.94;33.49;100148.72;5064315;28;20219;-68
2022/08/18 11:44:30;;;;;;;3.60;3.30;;;;;;;34.15;33.44;100153.13;5067481;28;20187;-68
2022/08/18 11:47:10;;;;;;;4.15;3.30;;;;;;;34.48;32.57;100152.34;5066941;28;20203;-67
2022/08/18 11:49:37;;;;;;;3.80;3.50;;;;;;;34.47;32.06;100152.53;5055901;28;20202;-68
2022/08/18 11:52:17;;;;;;;4.40;3.17;;;;;;;34.43;33.76;100149.44;5070176;28;20245;-68
2022/08/18 11:54:47;;;;;;;3.30;3.00;;;;;;;34.59;32.32;100152.75;5067797;28;20578;-70
2022/08/18 11:57:41;;;;;;;4.35;3.55;;;;;;;34.50;34.14;100155.66;5065619;28;20195;-71
2022/08/18 12:00:53;;;;;;;3.83;3.10;;;;;;;34.56;30.64;100159.41;5056589;28;20217;-68